createdAt,value
2024-02-14T00:00:02.901Z,6.46
2024-02-14T00:02:37.507Z,6.45
2024-02-14T00:05:12.103Z,6.45
2024-02-14T00:07:44.863Z,6.48
2024-02-14T00:10:18.068Z,6.50
2024-02-14T00:12:50.876Z,6.51
2024-02-14T00:15:23.401Z,6.51
2024-02-14T00:17:58.816Z,6.51
2024-02-14T00:20:31.367Z,6.49
2024-02-14T00:23:03.897Z,6.47
2024-02-14T00:25:36.254Z,6.44
2024-02-14T00:28:09.825Z,6.40
2024-02-14T00:30:42.193Z,6.38
2024-02-14T00:33:14.839Z,6.34
2024-02-14T00:35:47.359Z,6.31
2024-02-14T00:38:20.424Z,6.26
2024-02-14T00:40:52.698Z,6.22
2024-02-14T00:43:25.018Z,6.19
2024-02-14T00:45:58.339Z,6.15
2024-02-14T00:48:30.734Z,6.10
2024-02-14T00:51:03.552Z,6.05
2024-02-14T00:53:36.387Z,6.01
2024-02-14T00:56:13.765Z,5.97
2024-02-14T00:58:46.477Z,5.94
2024-02-14T01:01:18.935Z,5.91
2024-02-14T01:03:51.902Z,5.89
2024-02-14T01:06:26.115Z,5.88
2024-02-14T01:08:58.969Z,5.86
2024-02-14T01:11:31.577Z,5.88
2024-02-14T01:14:04.202Z,5.88
2024-02-14T01:16:44.115Z,5.90
2024-02-14T01:19:16.641Z,5.93
2024-02-14T01:21:49.956Z,5.94
2024-02-14T01:24:23.539Z,5.95
2024-02-14T01:26:57.361Z,5.95
2024-02-14T01:29:29.800Z,5.94
2024-02-14T01:32:02.435Z,5.92
2024-02-14T01:34:35.069Z,5.90
2024-02-14T01:37:07.472Z,5.88
2024-02-14T01:39:39.812Z,5.86
2024-02-14T01:42:12.248Z,5.84
2024-02-14T01:44:45.039Z,5.80
2024-02-14T01:47:20.306Z,5.77
2024-02-14T01:49:52.759Z,5.73
2024-02-14T01:52:25.168Z,5.69
2024-02-14T01:54:58.255Z,5.66
2024-02-14T01:57:31.109Z,5.63
2024-02-14T02:00:09.906Z,5.61
2024-02-14T02:02:42.490Z,5.57
2024-02-14T02:05:14.959Z,5.54
2024-02-14T02:07:50.052Z,5.52
2024-02-14T02:10:26.851Z,5.51
2024-02-14T02:13:03.352Z,5.52
2024-02-14T02:15:35.801Z,5.53
2024-02-14T02:18:09.107Z,5.55
2024-02-14T02:20:44.209Z,5.56
2024-02-14T02:23:16.993Z,5.57
2024-02-14T02:25:49.536Z,5.58
2024-02-14T02:28:21.879Z,5.57
2024-02-14T02:30:57.435Z,5.56
2024-02-14T02:33:31.902Z,5.52
2024-02-14T02:36:04.700Z,5.49
2024-02-14T02:38:38.007Z,5.45
2024-02-14T02:41:10.514Z,5.40
2024-02-14T02:43:42.703Z,5.35
2024-02-14T02:46:15.696Z,5.31
2024-02-14T02:48:49.272Z,5.26
2024-02-14T02:51:21.821Z,5.22
2024-02-14T02:53:55.700Z,5.18
2024-02-14T02:56:29.173Z,5.15
2024-02-14T02:59:04.585Z,5.13
2024-02-14T03:01:41.551Z,5.11
2024-02-14T03:04:16.255Z,5.09
2024-02-14T03:06:48.768Z,5.07
2024-02-14T03:09:21.065Z,5.07
2024-02-14T03:11:53.790Z,5.09
2024-02-14T03:14:26.768Z,5.11
2024-02-14T03:17:01.358Z,5.13
2024-02-14T03:19:39.610Z,5.15
2024-02-14T03:22:12.528Z,5.15
2024-02-14T03:24:45.278Z,5.17
2024-02-14T03:27:18.725Z,5.16
2024-02-14T03:29:53.144Z,5.16
2024-02-14T03:32:25.545Z,5.13
2024-02-14T03:34:57.980Z,5.11
2024-02-14T03:37:30.593Z,5.07
2024-02-14T03:40:09.469Z,5.05
2024-02-14T03:42:41.839Z,5.00
2024-02-14T03:45:15.603Z,4.98
2024-02-14T03:47:47.955Z,4.93
2024-02-14T03:50:20.617Z,4.91
2024-02-14T03:52:52.915Z,4.88
2024-02-14T03:55:26.185Z,4.87
2024-02-14T03:57:58.730Z,4.85
2024-02-14T04:00:32.611Z,4.85
2024-02-14T04:03:08.562Z,4.86
2024-02-14T04:05:42.147Z,4.88
2024-02-14T04:08:14.592Z,4.90
2024-02-14T04:10:47.494Z,4.92
2024-02-14T04:13:20.375Z,4.92
2024-02-14T04:15:53.955Z,4.93
2024-02-14T04:18:27.036Z,4.92
2024-02-14T04:21:00.918Z,4.89
2024-02-14T04:23:34.589Z,4.89
2024-02-14T04:26:07.058Z,4.86
2024-02-14T04:28:41.855Z,4.84
2024-02-14T04:31:14.028Z,4.82
2024-02-14T04:33:51.014Z,4.78
2024-02-14T04:36:24.793Z,4.75
2024-02-14T04:38:58.234Z,4.72
2024-02-14T04:41:30.931Z,4.71
2024-02-14T04:44:03.390Z,4.68
2024-02-14T04:46:36.151Z,4.66
2024-02-14T04:49:08.731Z,4.65
2024-02-14T04:51:41.446Z,4.65
2024-02-14T04:54:15.036Z,4.68
2024-02-14T04:56:50.419Z,4.70
2024-02-14T04:59:24.769Z,4.74
2024-02-14T05:01:57.984Z,4.77
2024-02-14T05:04:31.134Z,4.78
2024-02-14T05:07:03.509Z,4.79
2024-02-14T05:09:36.017Z,4.80
2024-02-14T05:12:12.286Z,4.80
2024-02-14T05:14:44.977Z,4.79
2024-02-14T05:17:18.198Z,4.78
2024-02-14T05:19:50.870Z,4.76
2024-02-14T05:22:24.071Z,4.74
2024-02-14T05:24:56.375Z,4.72
2024-02-14T05:27:31.421Z,4.70
2024-02-14T05:30:06.918Z,4.69
2024-02-14T05:32:41.280Z,4.67
2024-02-14T05:35:14.215Z,4.65
2024-02-14T05:37:52.329Z,4.62
2024-02-14T05:40:25.769Z,4.62
2024-02-14T05:42:58.481Z,4.62
2024-02-14T05:45:30.834Z,4.64
2024-02-14T05:48:03.162Z,4.67
2024-02-14T05:50:36.588Z,4.70
2024-02-14T05:53:09.110Z,4.75
2024-02-14T05:55:41.424Z,4.79
2024-02-14T05:58:14.065Z,4.82
2024-02-14T06:00:46.628Z,4.83
2024-02-14T06:03:19.918Z,4.83
2024-02-14T06:05:52.384Z,4.83
2024-02-14T06:08:25.457Z,4.83
2024-02-14T06:10:57.947Z,4.82
2024-02-14T06:13:32.658Z,4.80
2024-02-14T06:16:06.715Z,4.79
2024-02-14T06:18:40.983Z,4.78
2024-02-14T06:21:13.605Z,4.75
2024-02-14T06:23:48.307Z,4.74
2024-02-14T06:26:20.764Z,4.72
2024-02-14T06:28:55.875Z,4.70
2024-02-14T06:31:28.986Z,4.69
2024-02-14T06:34:01.979Z,4.69
2024-02-14T06:36:34.913Z,4.71
2024-02-14T06:39:09.398Z,4.74
2024-02-14T06:41:42.786Z,4.78
2024-02-14T06:44:16.331Z,4.82
2024-02-14T06:46:48.627Z,4.85
2024-02-14T06:49:21.458Z,4.87
2024-02-14T06:51:54.008Z,4.89
2024-02-14T06:54:26.272Z,4.91
2024-02-14T06:56:58.546Z,4.91
2024-02-14T06:59:31.227Z,4.92
2024-02-14T07:02:13.027Z,4.92
2024-02-14T07:04:46.541Z,4.91
2024-02-14T07:07:19.233Z,4.90
2024-02-14T07:09:54.901Z,4.92
2024-02-14T07:12:28.222Z,4.91
2024-02-14T07:15:00.683Z,4.92
2024-02-14T07:17:33.387Z,4.94
2024-02-14T07:20:07.231Z,4.96
2024-02-14T07:22:39.840Z,5.00
2024-02-14T07:25:12.905Z,5.04
2024-02-14T07:27:47.263Z,5.07
2024-02-14T07:30:20.234Z,5.11
2024-02-14T07:32:53.107Z,5.13
2024-02-14T07:35:27.121Z,5.13
2024-02-14T07:37:59.548Z,5.13
2024-02-14T07:40:33.336Z,5.14
2024-02-14T07:43:07.571Z,5.13
2024-02-14T07:45:39.854Z,5.13
2024-02-14T07:48:12.905Z,5.13
2024-02-14T07:50:45.872Z,5.11
2024-02-14T07:53:19.888Z,5.11
2024-02-14T07:55:53.346Z,5.11
2024-02-14T07:58:25.850Z,5.10
2024-02-14T08:00:58.273Z,5.11
2024-02-14T08:03:30.522Z,5.12
2024-02-14T08:06:03.210Z,5.15
2024-02-14T08:08:36.423Z,5.18
2024-02-14T08:11:09.166Z,5.23
2024-02-14T08:13:42.476Z,5.25
2024-02-14T08:16:14.795Z,5.30
2024-02-14T08:18:47.224Z,5.33
2024-02-14T08:21:20.443Z,5.34
2024-02-14T08:23:52.864Z,5.35
2024-02-14T08:26:25.630Z,5.36
2024-02-14T08:28:59.446Z,5.37
2024-02-14T08:31:34.005Z,5.37
2024-02-14T08:34:06.424Z,5.37
2024-02-14T08:36:42.116Z,5.41
2024-02-14T08:39:15.108Z,5.44
2024-02-14T08:41:48.453Z,5.47
2024-02-14T08:44:21.244Z,5.50
2024-02-14T08:46:55.526Z,5.53
2024-02-14T08:49:27.801Z,5.58
2024-02-14T08:52:00.100Z,5.60
2024-02-14T08:54:34.159Z,5.61
2024-02-14T08:57:07.033Z,5.61
2024-02-14T08:59:39.772Z,5.61
2024-02-14T09:02:12.105Z,5.59
2024-02-14T09:04:45.651Z,5.58
2024-02-14T09:07:18.567Z,5.60
2024-02-14T09:09:51.193Z,5.63
2024-02-14T09:12:23.986Z,5.66
2024-02-14T09:14:58.295Z,5.70
2024-02-14T09:17:31.795Z,5.74
2024-02-14T09:20:07.761Z,5.77
2024-02-14T09:22:42.487Z,5.79
2024-02-14T09:25:15.588Z,5.80
2024-02-14T09:27:49.013Z,5.80
2024-02-14T09:30:28.116Z,5.82
2024-02-14T09:33:08.173Z,5.84
2024-02-14T09:35:45.919Z,5.87
2024-02-14T09:38:18.702Z,5.90
2024-02-14T09:40:51.806Z,5.95
2024-02-14T09:43:30.806Z,5.99
2024-02-14T09:46:04.412Z,6.03
2024-02-14T09:48:41.129Z,6.06
2024-02-14T09:51:15.494Z,6.09
2024-02-14T09:53:49.337Z,6.11
2024-02-14T09:56:24.785Z,6.13
2024-02-14T09:58:58.306Z,6.14
2024-02-14T10:01:30.991Z,6.13
2024-02-14T10:04:04.473Z,6.16
2024-02-14T10:06:39.178Z,6.19
2024-02-14T10:09:12.238Z,6.24
2024-02-14T10:11:46.274Z,6.27
2024-02-14T10:14:20.439Z,6.30
2024-02-14T10:16:52.797Z,6.31
2024-02-14T10:19:25.870Z,6.32
2024-02-14T10:22:04.143Z,6.33
2024-02-14T10:24:36.651Z,6.33
2024-02-14T10:27:13.769Z,6.34
2024-02-14T10:29:46.121Z,6.36
2024-02-14T10:32:20.151Z,6.39
2024-02-14T10:34:52.609Z,6.42
2024-02-14T10:37:27.421Z,6.47
2024-02-14T10:40:03.097Z,6.51
2024-02-14T10:42:36.111Z,6.56
2024-02-14T10:45:10.538Z,6.60
2024-02-14T10:47:46.377Z,6.61
2024-02-14T10:50:20.627Z,6.60
2024-02-14T10:52:55.699Z,6.61
2024-02-14T10:55:35.579Z,6.63
2024-02-14T10:58:09.333Z,6.66
2024-02-14T11:00:43.640Z,6.67
2024-02-14T11:03:17.108Z,6.71
2024-02-14T11:05:51.311Z,6.72
2024-02-14T11:08:26.188Z,6.74
2024-02-14T11:11:00.949Z,6.74
2024-02-14T11:13:34.877Z,6.75
2024-02-14T11:16:12.315Z,6.74
2024-02-14T11:18:44.884Z,6.73
2024-02-14T11:21:21.608Z,6.73
2024-02-14T11:24:09.796Z,6.76
2024-02-14T11:26:48.445Z,6.80
2024-02-14T11:29:23.848Z,6.84
2024-02-14T11:32:04.354Z,6.88
2024-02-14T11:34:38.571Z,6.93
2024-02-14T11:37:16.394Z,6.98
2024-02-14T11:39:50.894Z,7.01
2024-02-14T11:42:27.083Z,7.03
2024-02-14T11:45:00.209Z,7.04
2024-02-14T11:47:33.288Z,7.07
2024-02-14T11:50:07.476Z,7.12
2024-02-14T11:52:39.786Z,7.17
2024-02-14T11:55:14.725Z,7.21
2024-02-14T11:57:49.396Z,7.23
2024-02-14T12:00:22.868Z,7.23
2024-02-14T12:02:56.281Z,7.23
2024-02-14T12:05:28.975Z,7.21
2024-02-14T12:08:02.149Z,7.20
2024-02-14T12:10:37.642Z,7.20
2024-02-14T12:13:13.212Z,7.20
2024-02-14T12:15:47.922Z,7.20
2024-02-14T12:18:21.923Z,7.22
2024-02-14T12:21:07.140Z,7.24
2024-02-14T12:23:40.248Z,7.26
2024-02-14T12:26:18.618Z,7.26
2024-02-14T12:28:54.672Z,7.29
2024-02-14T12:31:27.735Z,7.31
2024-02-14T12:34:03.864Z,7.32
2024-02-14T12:36:37.183Z,7.33
2024-02-14T12:39:14.056Z,7.32
2024-02-14T12:41:46.721Z,7.31
2024-02-14T12:44:19.882Z,7.31
2024-02-14T12:46:52.516Z,7.32
2024-02-14T12:49:27.426Z,7.35
2024-02-14T12:51:59.894Z,7.38
2024-02-14T12:54:33.757Z,7.39
2024-02-14T12:57:06.958Z,7.39
2024-02-14T12:59:39.272Z,7.39
2024-02-14T13:02:12.287Z,7.38
2024-02-14T13:04:45.325Z,7.37
2024-02-14T13:07:18.648Z,7.34
2024-02-14T13:09:52.482Z,7.33
2024-02-14T13:12:25.501Z,7.33
2024-02-14T13:14:57.926Z,7.33
2024-02-14T13:17:30.883Z,7.36
2024-02-14T13:20:05.034Z,7.38
2024-02-14T13:22:38.035Z,7.38
2024-02-14T13:25:12.144Z,7.38
2024-02-14T13:27:45.990Z,7.39
2024-02-14T13:30:20.235Z,7.39
2024-02-14T13:32:53.251Z,7.38
2024-02-14T13:35:25.985Z,7.38
2024-02-14T13:37:59.347Z,7.37
2024-02-14T13:40:31.773Z,7.37
2024-02-14T13:43:04.475Z,7.39
2024-02-14T13:45:45.235Z,7.39
2024-02-14T13:48:18.882Z,7.38
2024-02-14T13:50:52.747Z,7.39
2024-02-14T13:53:25.259Z,7.40
2024-02-14T13:55:57.956Z,7.40
2024-02-14T13:58:30.540Z,7.38
2024-02-14T14:01:03.077Z,7.38
2024-02-14T14:03:37.936Z,7.38
2024-02-14T14:06:11.341Z,7.41
2024-02-14T14:08:44.274Z,7.43
2024-02-14T14:11:16.795Z,7.44
2024-02-14T14:13:49.080Z,7.47
2024-02-14T14:16:23.078Z,7.48
2024-02-14T14:18:55.629Z,7.48
2024-02-14T14:21:28.100Z,7.48
2024-02-14T14:24:00.442Z,7.47
2024-02-14T14:26:33.108Z,7.47
2024-02-14T14:29:06.000Z,7.48
2024-02-14T14:31:38.400Z,7.50
2024-02-14T14:34:11.094Z,7.51
2024-02-14T14:36:43.454Z,7.53
2024-02-14T14:39:15.804Z,7.55
2024-02-14T14:41:48.160Z,7.56
2024-02-14T14:44:20.784Z,7.57
2024-02-14T14:46:53.123Z,7.56
2024-02-14T14:49:25.639Z,7.58
2024-02-14T14:51:58.803Z,7.60
2024-02-14T14:54:31.859Z,7.62
2024-02-14T14:57:10.961Z,7.64
2024-02-14T14:59:44.666Z,7.67
2024-02-14T15:02:17.193Z,7.69
2024-02-14T15:04:51.199Z,7.69
2024-02-14T15:07:23.720Z,7.70
2024-02-14T15:09:56.065Z,7.69
2024-02-14T15:12:28.323Z,7.71
2024-02-14T15:15:00.923Z,7.72
2024-02-14T15:17:33.319Z,7.75
2024-02-14T15:20:06.289Z,7.77
2024-02-14T15:22:38.758Z,7.78
2024-02-14T15:25:12.136Z,7.78
2024-02-14T15:27:55.713Z,7.78
2024-02-14T15:30:46.511Z,7.77
2024-02-14T15:33:25.621Z,7.78
2024-02-14T15:35:59.251Z,7.80
2024-02-14T15:38:31.922Z,7.82
2024-02-14T15:41:05.770Z,7.83
2024-02-14T15:43:38.315Z,7.84
2024-02-14T15:46:10.652Z,7.84
2024-02-14T15:48:43.568Z,7.84
2024-02-14T15:51:19.051Z,7.83
2024-02-14T15:53:51.581Z,7.82
2024-02-14T15:56:24.893Z,7.83
2024-02-14T15:58:58.766Z,7.83
2024-02-14T16:01:30.990Z,7.85
2024-02-14T16:04:03.294Z,7.88
2024-02-14T16:06:36.457Z,7.90
2024-02-14T16:09:10.348Z,7.90
2024-02-14T16:11:43.804Z,7.91
2024-02-14T16:14:18.208Z,7.91
2024-02-14T16:16:51.039Z,7.92
2024-02-14T16:19:23.304Z,7.93
2024-02-14T16:22:02.383Z,7.95
2024-02-14T16:24:42.329Z,7.96
2024-02-14T16:27:15.117Z,7.97
2024-02-14T16:29:47.884Z,7.97
2024-02-14T16:32:20.918Z,7.97
2024-02-14T16:34:53.219Z,7.96
2024-02-14T16:37:25.504Z,7.96
2024-02-14T16:39:58.433Z,7.98
2024-02-14T16:42:30.927Z,7.99
2024-02-14T16:45:05.531Z,8.01
2024-02-14T16:47:38.653Z,8.04
2024-02-14T16:50:11.880Z,8.04
2024-02-14T16:52:44.263Z,8.04
2024-02-14T16:55:16.533Z,8.03
2024-02-14T16:57:48.846Z,8.04
2024-02-14T17:00:22.742Z,8.06
2024-02-14T17:02:55.249Z,8.08
2024-02-14T17:05:28.019Z,8.09
2024-02-14T17:08:00.654Z,8.11
2024-02-14T17:10:33.183Z,8.11
2024-02-14T17:13:05.673Z,8.11
2024-02-14T17:15:38.202Z,8.10
2024-02-14T17:18:10.994Z,8.11
2024-02-14T17:20:44.293Z,8.12
2024-02-14T17:23:17.015Z,8.14
2024-02-14T17:25:50.504Z,8.15
2024-02-14T17:28:22.917Z,8.16
2024-02-14T17:30:55.198Z,8.17
2024-02-14T17:33:27.791Z,8.17
2024-02-14T17:36:00.198Z,8.18
2024-02-14T17:38:33.072Z,8.21
2024-02-14T17:41:05.714Z,8.23
2024-02-14T17:43:38.307Z,8.26
2024-02-14T17:46:11.783Z,8.27
2024-02-14T17:48:44.315Z,8.28
2024-02-14T17:51:17.357Z,8.27
2024-02-14T17:53:50.814Z,8.26
2024-02-14T17:56:26.276Z,8.27
2024-02-14T17:58:58.780Z,8.28
2024-02-14T18:01:31.094Z,8.29
2024-02-14T18:04:06.030Z,8.31
2024-02-14T18:06:40.162Z,8.33
2024-02-14T18:09:13.026Z,8.34
2024-02-14T18:11:45.922Z,8.35
2024-02-14T18:14:18.678Z,8.37
2024-02-14T18:16:52.438Z,8.39
2024-02-14T18:19:24.889Z,8.41
2024-02-14T18:21:57.785Z,8.42
2024-02-14T18:24:30.053Z,8.44
2024-02-14T18:27:02.598Z,8.45
2024-02-14T18:29:35.279Z,8.45
2024-02-14T18:32:09.605Z,8.46
2024-02-14T18:34:42.258Z,8.48
2024-02-14T18:37:14.787Z,8.49
2024-02-14T18:39:47.140Z,8.51
2024-02-14T18:42:19.476Z,8.52
2024-02-14T18:44:51.888Z,8.53
2024-02-14T18:47:24.880Z,8.53
2024-02-14T18:49:57.265Z,8.55
2024-02-14T18:52:29.563Z,8.56
2024-02-14T18:55:02.034Z,8.60
2024-02-14T18:57:34.570Z,8.62
2024-02-14T19:00:11.452Z,8.64
2024-02-14T19:02:44.357Z,8.65
2024-02-14T19:05:16.921Z,8.66
2024-02-14T19:07:49.280Z,8.68
2024-02-14T19:10:22.114Z,8.70
2024-02-14T19:12:54.533Z,8.72
2024-02-14T19:15:26.892Z,8.75
2024-02-14T19:17:59.266Z,8.77
2024-02-14T19:20:32.126Z,8.77
2024-02-14T19:23:08.339Z,8.77
2024-02-14T19:25:40.747Z,8.80
2024-02-14T19:28:13.468Z,8.81
2024-02-14T19:30:45.982Z,8.84
2024-02-14T19:33:19.237Z,8.86
2024-02-14T19:35:54.840Z,8.88
2024-02-14T19:38:29.370Z,8.89
2024-02-14T19:41:03.951Z,8.88
2024-02-14T19:43:39.909Z,8.89
2024-02-14T19:46:13.441Z,8.91
2024-02-14T19:48:46.217Z,8.93
2024-02-14T19:51:20.351Z,8.94
2024-02-14T19:53:52.926Z,8.97
2024-02-14T19:56:25.716Z,8.99
2024-02-14T19:58:58.001Z,9.00
2024-02-14T20:01:30.188Z,9.00
2024-02-14T20:04:02.937Z,9.02
2024-02-14T20:06:35.506Z,9.04
2024-02-14T20:09:08.716Z,9.07
2024-02-14T20:11:41.206Z,9.08
2024-02-14T20:14:13.675Z,9.08
2024-02-14T20:16:47.881Z,9.08
2024-02-14T20:19:20.646Z,9.10
2024-02-14T20:21:53.177Z,9.11
2024-02-14T20:24:26.361Z,9.13
2024-02-14T20:26:58.825Z,9.15
2024-02-14T20:29:31.251Z,9.16
2024-02-14T20:32:04.024Z,9.17
2024-02-14T20:34:36.551Z,9.17
2024-02-14T20:37:09.787Z,9.18
2024-02-14T20:39:42.124Z,9.19
2024-02-14T20:42:16.128Z,9.21
2024-02-14T20:44:48.834Z,9.23
2024-02-14T20:47:21.179Z,9.24
2024-02-14T20:49:53.847Z,9.25
2024-02-14T20:52:26.440Z,9.25
2024-02-14T20:54:59.718Z,9.26
2024-02-14T20:57:32.070Z,9.26
2024-02-14T21:00:10.080Z,9.28
2024-02-14T21:02:41.120Z,9.30
2024-02-14T21:05:15.062Z,9.31
2024-02-14T21:07:47.609Z,9.31
2024-02-14T21:10:21.147Z,9.32
2024-02-14T21:12:53.907Z,9.32
2024-02-14T21:15:26.809Z,9.34
2024-02-14T21:17:59.513Z,9.34
2024-02-14T21:20:32.300Z,9.35
2024-02-14T21:23:04.781Z,9.36
2024-02-14T21:25:37.789Z,9.37
2024-02-14T21:28:10.899Z,9.36
2024-02-14T21:30:43.181Z,9.37
2024-02-14T21:33:15.669Z,9.38
2024-02-14T21:35:50.684Z,9.40
2024-02-14T21:38:23.195Z,9.42
2024-02-14T21:40:55.502Z,9.43
2024-02-14T21:43:27.928Z,9.43
2024-02-14T21:46:00.254Z,9.42
2024-02-14T21:48:32.943Z,9.44
2024-02-14T21:51:10.691Z,9.45
2024-02-14T21:53:43.292Z,9.47
2024-02-14T21:56:16.817Z,9.48
2024-02-14T21:58:49.330Z,9.49
2024-02-14T22:01:21.857Z,9.51
2024-02-14T22:03:54.437Z,9.51
2024-02-14T22:06:27.059Z,9.52
2024-02-14T22:08:59.724Z,9.55
2024-02-14T22:11:32.400Z,9.55
2024-02-14T22:14:05.291Z,9.56
2024-02-14T22:16:38.685Z,9.56
2024-02-14T22:19:14.052Z,9.55
2024-02-14T22:21:47.024Z,9.56
2024-02-14T22:24:19.526Z,9.57
2024-02-14T22:26:52.143Z,9.59
2024-02-14T22:29:24.656Z,9.61
2024-02-14T22:31:57.085Z,9.62
2024-02-14T22:34:29.565Z,9.61
2024-02-14T22:37:05.140Z,9.61
2024-02-14T22:39:37.612Z,9.61
2024-02-14T22:42:10.510Z,9.64
2024-02-14T22:44:43.087Z,9.64
2024-02-14T22:47:15.756Z,9.64
2024-02-14T22:49:48.394Z,9.64
2024-02-14T22:52:23.224Z,9.63
2024-02-14T22:54:55.577Z,9.62
2024-02-14T22:57:28.269Z,9.61
2024-02-14T23:00:00.902Z,9.63
2024-02-14T23:02:34.158Z,9.64
2024-02-14T23:05:08.422Z,9.64
2024-02-14T23:07:41.072Z,9.64
2024-02-14T23:10:13.888Z,9.62
2024-02-14T23:12:46.642Z,9.63
2024-02-14T23:15:19.714Z,9.64
2024-02-14T23:17:52.251Z,9.66
2024-02-14T23:20:24.669Z,9.67
2024-02-14T23:22:57.588Z,9.67
2024-02-14T23:25:33.638Z,9.68
2024-02-14T23:28:06.227Z,9.68
2024-02-14T23:30:41.041Z,9.68
2024-02-14T23:33:14.411Z,9.69
2024-02-14T23:35:47.194Z,9.70
2024-02-14T23:38:20.672Z,9.71
2024-02-14T23:40:53.236Z,9.71
2024-02-14T23:43:25.709Z,9.71
2024-02-14T23:45:58.063Z,9.70
2024-02-14T23:48:30.528Z,9.70
2024-02-14T23:51:03.714Z,9.71
2024-02-14T23:53:36.095Z,9.72
2024-02-14T23:56:09.323Z,9.71
2024-02-14T23:58:41.692Z,9.71
